Time;durP1;ratioP1;P1;durP2;ratioP2;P2;SDS_P1;SDS_P2;PMS_P1;PMS_P2;Temp;Humidity;BMP_temperature;BMP_pressure;BME280_temperature;BME280_humidity;BME280_pressure;Samples;Min_cycle;Max_cycle;Signal;HPM_P1;HPM_P2
2023/09/22 00:01:43;;;;;;;32.13;19.02;;;;;;;;;;5054738;28;20082;-71
2023/09/22 00:04:10;;;;;;;38.45;20.02;;;;;;;;;;5054079;28;20041;-72
2023/09/22 00:06:36;;;;;;;38.35;20.58;;;;;;;;;;5052711;28;20017;-70
2023/09/22 00:09:02;;;;;;;38.28;20.10;;;;;;;;;;5054403;28;20035;-72
2023/09/22 00:11:27;;;;;;;41.03;21.63;;;;;;;;;;5053179;28;20100;-72
2023/09/22 00:13:52;;;;;;;46.50;22.67;;;;;;;;;;5054012;28;20133;-72
2023/09/22 00:16:18;;;;;;;43.55;22.42;;;;;;;;;;5053682;28;20091;-72
2023/09/22 00:18:43;;;;;;;49.30;22.83;;;;;;;;;;5053308;28;20031;-71
2023/09/22 00:21:09;;;;;;;47.22;23.02;;;;;;;;;;5053980;28;20100;-72
2023/09/22 00:23:34;;;;;;;51.03;24.02;;;;;;;;;;5053542;28;20036;-72
2023/09/22 00:25:59;;;;;;;49.42;22.85;;;;;;;;;;5054314;28;20025;-72
2023/09/22 00:28:25;;;;;;;49.53;23.65;;;;;;;;;;5054121;28;20033;-72
2023/09/22 00:30:50;;;;;;;48.83;23.88;;;;;;;;;;5053914;28;20377;-72
2023/09/22 00:33:15;;;;;;;51.05;23.30;;;;;;;;;;5053850;28;20021;-71
2023/09/22 00:35:41;;;;;;;48.63;22.88;;;;;;;;;;5054328;28;20480;-72
2023/09/22 00:38:06;;;;;;;52.90;24.67;;;;;;;;;;5053788;28;20024;-71
2023/09/22 00:40:32;;;;;;;51.70;24.02;;;;;;;;;;5054050;28;20017;-71
2023/09/22 00:43:09;;;;;;;54.03;23.80;;;;;;;;;;5053735;28;20090;-72
2023/09/22 00:45:35;;;;;;;49.15;22.00;;;;;;;;;;5053826;28;20025;-72
2023/09/22 00:48:01;;;;;;;43.85;20.92;;;;;;;;;;5053722;28;20017;-72
2023/09/22 00:50:26;;;;;;;46.25;21.60;;;;;;;;;;5053618;28;20488;-70
2023/09/22 00:52:52;;;;;;;43.80;21.10;;;;;;;;;;5053813;28;20079;-72
2023/09/22 00:55:17;;;;;;;42.30;20.20;;;;;;;;;;5053883;28;20035;-72
2023/09/22 00:57:43;;;;;;;38.65;19.52;;;;;;;;;;5052467;28;20029;-72
2023/09/22 01:03:11;;;;;;;37.13;19.23;;;;;;;;;;5064738;22;20035;-68
2023/09/22 01:05:36;;;;;;;35.33;18.88;;;;;;;;;;5093448;28;20024;-66
2023/09/22 01:08:02;;;;;;;36.67;16.90;;;;;;;;;;5093192;28;20024;-63
2023/09/22 01:10:36;;;;;;;28.98;15.75;;;;;;;;;;5093554;28;20020;-63
2023/09/22 01:13:02;;;;;;;27.30;14.73;;;;;;;;;;5093487;28;20020;-64
2023/09/22 01:15:28;;;;;;;27.10;14.45;;;;;;;;;;5093565;28;20387;-64
2023/09/22 01:17:53;;;;;;;27.63;13.80;;;;;;;;;;5093196;28;20053;-65
2023/09/22 01:20:19;;;;;;;24.92;13.20;;;;;;;;;;5091529;28;20523;-63
2023/09/22 01:22:44;;;;;;;23.00;12.57;;;;;;;;;;5087855;28;20069;-64
2023/09/22 01:25:11;;;;;;;22.77;12.75;;;;;;;;;;5092893;28;20032;-64
2023/09/22 01:27:36;;;;;;;22.85;11.80;;;;;;;;;;5092065;28;20016;-62
2023/09/22 01:30:05;;;;;;;23.02;12.07;;;;;;;;;;5091681;28;20031;-64
2023/09/22 01:32:30;;;;;;;24.48;12.65;;;;;;;;;;5093537;28;20013;-63
2023/09/22 01:34:57;;;;;;;21.00;12.00;;;;;;;;;;5093051;28;20020;-63
2023/09/22 01:37:26;;;;;;;23.33;12.52;;;;;;;;;;5093083;28;20522;-61
2023/09/22 01:39:51;;;;;;;26.23;13.20;;;;;;;;;;5093154;28;20463;-64
2023/09/22 01:42:16;;;;;;;22.50;12.05;;;;;;;;;;5093351;28;20107;-64
2023/09/22 01:44:42;;;;;;;24.60;11.55;;;;;;;;;;5092676;28;20047;-65
2023/09/22 01:47:08;;;;;;;21.55;11.93;;;;;;;;;;5092517;28;20549;-63
2023/09/22 01:49:33;;;;;;;19.35;11.52;;;;;;;;;;5093220;28;20008;-63
2023/09/22 01:51:59;;;;;;;19.73;12.13;;;;;;;;;;5092639;28;20015;-66
2023/09/22 01:54:24;;;;;;;18.58;11.07;;;;;;;;;;5092731;28;20024;-64
2023/09/22 01:56:49;;;;;;;19.02;11.68;;;;;;;;;;5092291;28;20455;-64
2023/09/22 01:59:14;;;;;;;19.92;12.05;;;;;;;;;;5091455;28;20432;-64
2023/09/22 02:01:40;;;;;;;24.50;11.68;;;;;;;;;;5089842;28;20371;-65
2023/09/22 02:04:05;;;;;;;18.48;11.18;;;;;;;;;;5078239;28;20528;-64
2023/09/22 02:06:31;;;;;;;17.85;11.82;;;;;;;;;;5058822;28;20040;-65
2023/09/22 02:08:57;;;;;;;19.67;11.10;;;;;;;;;;5072941;28;20032;-64
2023/09/22 02:11:22;;;;;;;19.23;11.57;;;;;;;;;;5077110;28;20400;-69
2023/09/22 02:13:47;;;;;;;18.70;11.38;;;;;;;;;;5074988;28;20025;-69
2023/09/22 02:16:13;;;;;;;20.15;12.35;;;;;;;;;;5079075;28;20027;-69
2023/09/22 02:18:38;;;;;;;19.52;11.60;;;;;;;;;;5071723;28;20060;-69
2023/09/22 02:21:06;;;;;;;21.25;12.38;;;;;;;;;;5074002;28;20033;-69
2023/09/22 02:23:31;;;;;;;23.15;12.05;;;;;;;;;;5073187;28;20464;-67
2023/09/22 02:26:03;;;;;;;17.80;11.95;;;;;;;;;;5074334;28;20020;-69
2023/09/22 02:28:29;;;;;;;20.23;11.70;;;;;;;;;;5072165;28;20097;-69
2023/09/22 02:30:54;;;;;;;19.95;10.98;;;;;;;;;;5071664;28;20020;-69
2023/09/22 02:33:19;;;;;;;21.02;12.23;;;;;;;;;;5072174;28;20430;-69
2023/09/22 02:35:45;;;;;;;23.98;11.65;;;;;;;;;;5071851;28;20036;-69
2023/09/22 02:38:10;;;;;;;23.95;12.68;;;;;;;;;;5072016;28;20131;-68
2023/09/22 02:40:35;;;;;;;20.67;11.85;;;;;;;;;;5071513;28;20024;-68
2023/09/22 02:43:00;;;;;;;22.58;12.48;;;;;;;;;;5071444;28;20042;-68
2023/09/22 02:45:25;;;;;;;22.95;12.75;;;;;;;;;;5072146;28;20059;-69
2023/09/22 02:47:51;;;;;;;20.83;10.90;;;;;;;;;;5075611;28;20044;-68
2023/09/22 02:50:18;;;;;;;21.50;11.57;;;;;;;;;;5074689;28;20035;-69
2023/09/22 02:52:44;;;;;;;22.00;11.43;;;;;;;;;;5072913;28;20472;-69
2023/09/22 02:55:11;;;;;;;21.35;11.93;;;;;;;;;;5075627;28;20814;-69
2023/09/22 02:57:37;;;;;;;23.30;12.32;;;;;;;;;;5071960;28;20024;-69
2023/09/22 03:00:11;;;;;;;22.33;12.32;;;;;;;;;;5071950;28;20059;-69
2023/09/22 03:02:36;;;;;;;22.92;12.15;;;;;;;;;;5071546;28;20135;-68
2023/09/22 03:05:06;;;;;;;18.55;11.80;;;;;;;;;;5071697;28;20501;-68
2023/09/22 03:07:31;;;;;;;19.17;11.43;;;;;;;;;;5071313;28;20545;-68
2023/09/22 03:09:56;;;;;;;18.58;11.18;;;;;;;;;;5078373;28;20051;-69
2023/09/22 03:12:22;;;;;;;19.05;11.55;;;;;;;;;;5078235;28;20024;-69
2023/09/22 03:14:48;;;;;;;16.63;10.65;;;;;;;;;;5072468;28;20021;-68
2023/09/22 03:17:13;;;;;;;17.23;10.13;;;;;;;;;;5072989;28;20483;-67
2023/09/22 03:19:38;;;;;;;17.63;10.02;;;;;;;;;;5071819;28;20100;-69
2023/09/22 03:22:04;;;;;;;15.35;10.02;;;;;;;;;;5078520;28;20505;-69
2023/09/22 03:24:29;;;;;;;15.77;10.30;;;;;;;;;;5072047;28;20065;-69
2023/09/22 03:26:54;;;;;;;16.50;10.32;;;;;;;;;;5071230;28;20020;-69
2023/09/22 03:29:19;;;;;;;16.67;9.88;;;;;;;;;;5071731;28;20023;-69
2023/09/22 03:31:45;;;;;;;16.60;10.73;;;;;;;;;;5070880;28;20461;-69
2023/09/22 03:34:10;;;;;;;18.40;10.43;;;;;;;;;;5071509;28;20131;-69
2023/09/22 03:36:36;;;;;;;15.85;11.13;;;;;;;;;;5072895;28;20027;-69
2023/09/22 03:39:03;;;;;;;18.00;11.43;;;;;;;;;;5074697;28;20082;-69
2023/09/22 03:41:28;;;;;;;16.95;10.80;;;;;;;;;;5072637;28;20031;-69
2023/09/22 03:43:54;;;;;;;16.23;11.35;;;;;;;;;;5074912;28;20473;-69
2023/09/22 03:46:20;;;;;;;15.35;10.02;;;;;;;;;;5075046;28;20073;-69
2023/09/22 03:48:45;;;;;;;16.95;10.45;;;;;;;;;;5074630;28;20021;-68
2023/09/22 03:51:10;;;;;;;16.25;10.82;;;;;;;;;;5074833;28;20103;-69
2023/09/22 03:53:37;;;;;;;19.17;10.20;;;;;;;;;;5075113;28;20016;-69
2023/09/22 03:56:02;;;;;;;13.82;9.25;;;;;;;;;;5074537;28;20048;-68
2023/09/22 03:58:27;;;;;;;15.82;9.80;;;;;;;;;;5071777;28;20064;-69
2023/09/22 04:01:02;;;;;;;15.02;9.57;;;;;;;;;;5074227;28;20028;-67
2023/09/22 04:03:28;;;;;;;15.00;9.82;;;;;;;;;;5081085;28;20620;-68
2023/09/22 04:05:53;;;;;;;17.20;9.98;;;;;;;;;;5074235;28;20076;-68
2023/09/22 04:08:19;;;;;;;15.60;10.93;;;;;;;;;;5074650;28;20102;-68
2023/09/22 04:10:44;;;;;;;16.15;11.07;;;;;;;;;;5075498;28;20024;-69
2023/09/22 04:13:09;;;;;;;16.00;10.48;;;;;;;;;;5079376;28;20031;-68
2023/09/22 04:15:35;;;;;;;16.23;11.02;;;;;;;;;;5077279;28;20103;-69
2023/09/22 04:18:01;;;;;;;19.13;11.98;;;;;;;;;;5078397;28;20107;-68
2023/09/22 04:20:29;;;;;;;22.17;13.38;;;;;;;;;;5076612;28;20103;-68
2023/09/22 04:22:55;;;;;;;20.92;12.38;;;;;;;;;;5075055;28;20028;-69
2023/09/22 04:25:29;;;;;;;20.75;12.38;;;;;;;;;;5079585;28;20077;-69
2023/09/22 04:27:57;;;;;;;19.50;12.43;;;;;;;;;;5072999;28;20472;-68
2023/09/22 04:30:24;;;;;;;22.50;12.65;;;;;;;;;;5073920;28;20039;-62
2023/09/22 04:32:51;;;;;;;18.73;11.77;;;;;;;;;;5074160;28;20019;-64
2023/09/22 04:35:16;;;;;;;20.17;12.18;;;;;;;;;;5075197;28;20520;-64
2023/09/22 04:37:42;;;;;;;19.70;10.63;;;;;;;;;;5074106;28;20115;-65
2023/09/22 04:40:22;;;;;;;19.00;11.95;;;;;;;;;;5073856;28;20067;-64
2023/09/22 04:42:48;;;;;;;19.80;11.82;;;;;;;;;;5072659;28;20428;-64
2023/09/22 04:45:14;;;;;;;22.58;11.80;;;;;;;;;;5080595;28;20056;-63
2023/09/22 04:47:39;;;;;;;19.15;11.45;;;;;;;;;;5074774;28;20021;-61
2023/09/22 04:50:05;;;;;;;19.27;11.27;;;;;;;;;;5075817;28;20020;-62
2023/09/22 04:52:30;;;;;;;19.50;11.40;;;;;;;;;;5075426;28;20024;-63
2023/09/22 04:54:56;;;;;;;15.27;9.63;;;;;;;;;;5077166;28;20059;-62
2023/09/22 04:57:21;;;;;;;18.45;10.35;;;;;;;;;;5078590;28;20019;-61
2023/09/22 04:59:47;;;;;;;17.80;9.18;;;;;;;;;;5079459;28;20171;-62
2023/09/22 05:02:12;;;;;;;16.27;9.20;;;;;;;;;;5081161;28;20036;-62
2023/09/22 05:04:37;;;;;;;15.73;8.70;;;;;;;;;;5073738;28;20112;-63
2023/09/22 05:07:02;;;;;;;14.43;8.85;;;;;;;;;;5077275;28;20067;-63
2023/09/22 05:09:27;;;;;;;14.48;7.88;;;;;;;;;;5072320;28;20032;-63
2023/09/22 05:11:53;;;;;;;14.32;8.25;;;;;;;;;;5071869;28;20460;-60
2023/09/22 05:14:18;;;;;;;12.65;6.90;;;;;;;;;;5073148;28;20049;-60
2023/09/22 05:16:44;;;;;;;18.08;7.90;;;;;;;;;;5073186;28;20024;-62
2023/09/22 05:19:10;;;;;;;16.67;7.13;;;;;;;;;;5073570;28;20055;-60
2023/09/22 05:21:35;;;;;;;11.57;6.97;;;;;;;;;;5072989;28;20032;-61
2023/09/22 05:24:00;;;;;;;14.15;7.78;;;;;;;;;;5072462;28;20098;-60
2023/09/22 05:26:25;;;;;;;15.50;8.52;;;;;;;;;;5074252;28;20054;-62
2023/09/22 05:28:51;;;;;;;11.95;6.55;;;;;;;;;;5074110;28;20115;-61
2023/09/22 05:31:16;;;;;;;12.05;6.63;;;;;;;;;;5073789;28;20074;-60
2023/09/22 05:33:42;;;;;;;13.88;7.07;;;;;;;;;;5074036;28;20042;-64
2023/09/22 05:36:07;;;;;;;14.10;7.40;;;;;;;;;;5073846;28;20074;-60
2023/09/22 05:38:32;;;;;;;14.50;7.72;;;;;;;;;;5073321;28;20028;-61
2023/09/22 05:40:58;;;;;;;16.55;7.18;;;;;;;;;;5073972;28;20038;-62
2023/09/22 05:43:24;;;;;;;15.38;8.15;;;;;;;;;;5074198;28;20472;-63
2023/09/22 05:45:55;;;;;;;14.40;7.27;;;;;;;;;;5073193;28;20065;-61
2023/09/22 05:48:21;;;;;;;15.40;7.78;;;;;;;;;;5073881;28;20017;-62
2023/09/22 05:50:55;;;;;;;16.92;7.85;;;;;;;;;;5072274;28;20449;-62
2023/09/22 05:53:20;;;;;;;15.65;8.07;;;;;;;;;;5073702;28;20020;-62
2023/09/22 05:55:45;;;;;;;15.95;7.85;;;;;;;;;;5073469;28;20476;-62
2023/09/22 05:58:12;;;;;;;17.15;7.95;;;;;;;;;;5074790;28;20472;-61
2023/09/22 06:00:37;;;;;;;14.18;7.38;;;;;;;;;;5073621;28;20024;-62
2023/09/22 06:03:03;;;;;;;14.35;7.28;;;;;;;;;;5072869;28;20020;-63
2023/09/22 06:05:29;;;;;;;14.00;7.28;;;;;;;;;;5072445;28;20484;-63
2023/09/22 06:07:55;;;;;;;12.93;6.95;;;;;;;;;;5072999;28;20048;-61
2023/09/22 06:10:21;;;;;;;13.50;7.55;;;;;;;;;;5073640;28;20464;-62
2023/09/22 06:12:46;;;;;;;12.02;6.75;;;;;;;;;;5073311;28;20058;-60
2023/09/22 06:15:12;;;;;;;12.13;6.10;;;;;;;;;;5073274;28;20069;-59
2023/09/22 06:17:38;;;;;;;15.70;6.10;;;;;;;;;;5073555;28;20448;-63
2023/09/22 06:20:15;;;;;;;13.10;6.78;;;;;;;;;;5073345;28;20039;-63
2023/09/22 06:22:41;;;;;;;12.65;6.55;;;;;;;;;;5073213;28;20111;-61
2023/09/22 06:25:08;;;;;;;11.93;6.32;;;;;;;;;;5073173;28;20082;-61
2023/09/22 06:27:33;;;;;;;16.05;6.93;;;;;;;;;;5073126;28;20021;-63
2023/09/22 06:30:00;;;;;;;13.18;7.70;;;;;;;;;;5071568;28;20021;-62
2023/09/22 06:32:25;;;;;;;22.63;7.55;;;;;;;;;;5073529;28;20373;-63
2023/09/22 06:34:53;;;;;;;14.68;6.88;;;;;;;;;;5076072;28;20024;-69
2023/09/22 06:37:19;;;;;;;13.32;6.50;;;;;;;;;;5073483;28;20025;-69
2023/09/22 06:39:44;;;;;;;11.20;6.03;;;;;;;;;;5073338;28;20380;-68
2023/09/22 06:42:10;;;;;;;12.73;6.47;;;;;;;;;;5072888;28;20017;-67
2023/09/22 06:44:35;;;;;;;10.98;5.65;;;;;;;;;;5073055;28;20017;-67
2023/09/22 06:47:02;;;;;;;11.80;4.95;;;;;;;;;;5073101;28;20031;-65
2023/09/22 06:49:28;;;;;;;12.13;5.65;;;;;;;;;;5073255;28;20031;-65
2023/09/22 06:51:54;;;;;;;9.98;5.25;;;;;;;;;;5072758;28;20527;-65
2023/09/22 06:54:20;;;;;;;11.05;5.55;;;;;;;;;;5072970;28;20024;-66
2023/09/22 06:56:46;;;;;;;11.00;5.45;;;;;;;;;;5072836;28;20452;-67
2023/09/22 06:59:12;;;;;;;18.85;5.75;;;;;;;;;;5073097;28;20028;-68
2023/09/22 07:01:38;;;;;;;10.93;5.68;;;;;;;;;;5073239;28;20028;-68
2023/09/22 07:04:08;;;;;;;13.43;5.75;;;;;;;;;;5072851;28;20025;-69
2023/09/22 07:06:36;;;;;;;12.40;5.63;;;;;;;;;;5072747;28;20063;-68
2023/09/22 07:09:01;;;;;;;12.63;5.75;;;;;;;;;;5072727;28;20035;-68
2023/09/22 07:11:26;;;;;;;11.90;6.18;;;;;;;;;;5073116;28;20021;-69
2023/09/22 07:13:52;;;;;;;11.82;5.35;;;;;;;;;;5072285;28;20028;-68
2023/09/22 07:16:18;;;;;;;12.63;5.90;;;;;;;;;;5073905;28;20415;-68
2023/09/22 07:18:43;;;;;;;15.45;6.68;;;;;;;;;;5076437;28;20520;-68
2023/09/22 07:21:09;;;;;;;12.73;6.15;;;;;;;;;;5077014;28;20103;-68
2023/09/22 07:23:34;;;;;;;10.13;5.03;;;;;;;;;;5076939;28;20379;-66
2023/09/22 07:26:01;;;;;;;10.23;4.90;;;;;;;;;;5076600;28;20024;-66
2023/09/22 07:28:27;;;;;;;10.15;5.13;;;;;;;;;;5076745;28;20024;-67
2023/09/22 07:30:52;;;;;;;11.40;5.35;;;;;;;;;;5076636;28;20043;-66
2023/09/22 07:33:17;;;;;;;10.23;4.55;;;;;;;;;;5076736;28;20025;-66
2023/09/22 07:35:43;;;;;;;8.57;3.92;;;;;;;;;;5076318;28;20461;-64
2023/09/22 07:38:08;;;;;;;8.88;4.05;;;;;;;;;;5076673;28;20024;-64
2023/09/22 07:40:33;;;;;;;9.32;4.72;;;;;;;;;;5076276;28;20426;-65
2023/09/22 07:43:00;;;;;;;10.45;4.70;;;;;;;;;;5076162;28;20036;-66
2023/09/22 07:45:25;;;;;;;8.50;4.72;;;;;;;;;;5076461;28;20511;-65
2023/09/22 07:47:51;;;;;;;8.50;5.10;;;;;;;;;;5076303;28;20016;-66
2023/09/22 07:50:17;;;;;;;9.27;5.25;;;;;;;;;;5076131;28;20020;-66
2023/09/22 07:52:43;;;;;;;8.48;5.03;;;;;;;;;;5076170;28;20036;-66
2023/09/22 07:55:09;;;;;;;10.02;5.18;;;;;;;;;;5076284;28;20491;-66
2023/09/22 07:57:34;;;;;;;11.65;5.68;;;;;;;;;;5075615;28;20024;-65
2023/09/22 07:59:59;;;;;;;10.20;5.10;;;;;;;;;;5073276;28;20056;-65
2023/09/22 08:02:24;;;;;;;11.35;5.43;;;;;;;;;;5075978;28;20032;-63
2023/09/22 08:04:50;;;;;;;9.70;5.10;;;;;;;;;;5075800;28;20032;-64
2023/09/22 08:07:15;;;;;;;7.43;4.68;;;;;;;;;;5075328;28;20050;-64
2023/09/22 08:09:40;;;;;;;6.80;4.13;;;;;;;;;;5075515;28;20380;-63
2023/09/22 08:12:07;;;;;;;10.00;4.57;;;;;;;;;;5075555;28;20495;-65
2023/09/22 08:14:34;;;;;;;11.75;4.88;;;;;;;;;;5075402;28;20021;-65
2023/09/22 08:17:00;;;;;;;6.80;4.28;;;;;;;;;;5075254;28;20031;-66
2023/09/22 08:19:25;;;;;;;8.95;4.63;;;;;;;;;;5075353;28;20021;-67
2023/09/22 08:21:50;;;;;;;10.90;4.93;;;;;;;;;;5075581;28;20024;-67
2023/09/22 08:24:15;;;;;;;8.32;4.28;;;;;;;;;;5075560;28;20108;-67
2023/09/22 08:26:42;;;;;;;6.50;3.65;;;;;;;;;;5073907;28;20067;-66
2023/09/22 08:29:09;;;;;;;9.73;4.65;;;;;;;;;;5074036;28;20336;-65
2023/09/22 08:31:34;;;;;;;9.77;4.47;;;;;;;;;;5074920;28;20021;-68
2023/09/22 08:33:59;;;;;;;9.18;3.65;;;;;;;;;;5073866;28;20031;-67
2023/09/22 08:36:25;;;;;;;8.80;4.15;;;;;;;;;;5074945;28;20024;-68
2023/09/22 08:38:51;;;;;;;10.73;3.83;;;;;;;;;;5074978;28;20020;-67
2023/09/22 08:41:17;;;;;;;7.57;4.13;;;;;;;;;;5075254;28;20468;-65
2023/09/22 08:43:45;;;;;;;7.03;3.58;;;;;;;;;;5074498;28;20036;-65
2023/09/22 08:46:11;;;;;;;7.43;3.75;;;;;;;;;;5075566;28;20047;-67
2023/09/22 08:48:36;;;;;;;7.57;3.15;;;;;;;;;;5074606;28;20028;-67
2023/09/22 08:51:02;;;;;;;6.88;3.50;;;;;;;;;;5074652;28;20366;-65
2023/09/22 08:53:29;;;;;;;6.30;2.90;;;;;;;;;;5074826;28;20013;-66
2023/09/22 08:55:55;;;;;;;5.82;2.55;;;;;;;;;;5075035;28;20047;-65
2023/09/22 08:58:20;;;;;;;7.40;2.92;;;;;;;;;;5074950;28;20024;-65
2023/09/22 09:00:51;;;;;;;5.30;2.03;;;;;;;;;;5074608;28;20460;-66
2023/09/22 09:03:18;;;;;;;8.50;2.08;;;;;;;;;;5074492;28;20481;-66
2023/09/22 09:05:43;;;;;;;6.55;2.15;;;;;;;;;;5073804;28;20028;-66
2023/09/22 09:08:16;;;;;;;6.78;2.20;;;;;;;;;;5074184;28;20032;-65
2023/09/22 09:10:44;;;;;;;9.20;2.08;;;;;;;;;;5074409;28;20477;-64
2023/09/22 09:13:13;;;;;;;3.97;1.90;;;;;;;;;;5074597;28;20044;-65
2023/09/22 09:15:47;;;;;;;5.47;1.90;;;;;;;;;;5074496;28;20492;-67
2023/09/22 09:18:15;;;;;;;8.80;1.70;;;;;;;;;;5074464;28;20537;-65
2023/09/22 09:20:41;;;;;;;3.40;1.40;;;;;;;;;;5074529;28;20480;-66
2023/09/22 09:23:13;;;;;;;5.57;1.90;;;;;;;;;;5074254;28;20012;-66
2023/09/22 09:25:49;;;;;;;5.38;1.67;;;;;;;;;;5073807;28;20032;-65
2023/09/22 09:28:15;;;;;;;7.10;1.70;;;;;;;;;;5074270;28;20423;-65
2023/09/22 09:30:51;;;;;;;7.03;1.80;;;;;;;;;;5074015;28;20030;-64
2023/09/22 09:33:18;;;;;;;3.80;1.65;;;;;;;;;;5074111;28;20074;-65
2023/09/22 09:35:43;;;;;;;4.38;2.05;;;;;;;;;;5073974;28;20012;-65
2023/09/22 09:38:08;;;;;;;5.88;2.03;;;;;;;;;;5073883;28;20017;-65
2023/09/22 09:40:37;;;;;;;3.17;1.67;;;;;;;;;;5073985;28;20025;-64
2023/09/22 09:43:05;;;;;;;7.60;1.70;;;;;;;;;;5073854;28;20032;-66
2023/09/22 09:45:30;;;;;;;5.47;1.80;;;;;;;;;;5073576;28;20048;-66
2023/09/22 09:47:58;;;;;;;5.65;1.98;;;;;;;;;;5073487;28;20055;-66
2023/09/22 09:50:24;;;;;;;5.55;1.73;;;;;;;;;;5073388;28;20027;-67
2023/09/22 09:52:55;;;;;;;5.57;1.55;;;;;;;;;;5074009;28;20372;-67
2023/09/22 09:55:21;;;;;;;2.58;1.50;;;;;;;;;;5073789;28;20024;-66
2023/09/22 09:57:46;;;;;;;3.60;1.70;;;;;;;;;;5073452;28;20020;-66
2023/09/22 10:00:22;;;;;;;4.85;2.15;;;;;;;;;;5073088;28;20024;-67
2023/09/22 10:02:48;;;;;;;6.00;1.70;;;;;;;;;;5073271;28;20062;-68
2023/09/22 10:05:14;;;;;;;4.00;1.80;;;;;;;;;;5073303;28;20024;-68
2023/09/22 10:07:41;;;;;;;4.13;1.85;;;;;;;;;;5072118;28;20040;-68
2023/09/22 10:10:06;;;;;;;5.80;1.73;;;;;;;;;;5073214;28;20020;-67
2023/09/22 10:12:32;;;;;;;5.32;1.85;;;;;;;;;;5073180;28;20077;-65
2023/09/22 10:15:01;;;;;;;5.82;1.80;;;;;;;;;;5073041;28;20021;-65
2023/09/22 10:17:27;;;;;;;3.97;1.77;;;;;;;;;;5073206;28;20092;-65
2023/09/22 10:19:52;;;;;;;5.60;2.03;;;;;;;;;;5073217;28;20043;-66
2023/09/22 10:22:18;;;;;;;6.65;2.00;;;;;;;;;;5073237;28;20028;-66
2023/09/22 10:24:43;;;;;;;6.75;1.88;;;;;;;;;;5073116;28;20457;-66
2023/09/22 10:27:09;;;;;;;4.28;1.90;;;;;;;;;;5072754;28;20025;-66
2023/09/22 10:29:37;;;;;;;3.05;1.80;;;;;;;;;;5069491;28;20428;-66
2023/09/22 10:32:26;;;;;;;4.97;2.00;;;;;;;;;;5072748;28;20103;-66
2023/09/22 10:34:53;;;;;;;4.90;1.52;;;;;;;;;;5072571;28;20024;-61
2023/09/22 10:37:19;;;;;;;4.57;2.03;;;;;;;;;;5071754;28;20498;-61
2023/09/22 10:39:53;;;;;;;3.58;1.90;;;;;;;;;;5073063;28;20027;-58
2023/09/22 10:42:19;;;;;;;4.20;2.00;;;;;;;;;;5073177;28;20560;-61
2023/09/22 10:45:10;;;;;;;3.58;2.15;;;;;;;;;;5073206;28;20103;-60
2023/09/22 10:47:42;;;;;;;3.75;2.10;;;;;;;;;;5070114;28;20480;-61
2023/09/22 10:50:16;;;;;;;5.20;2.28;;;;;;;;;;5072719;28;20221;-63
2023/09/22 10:52:52;;;;;;;6.38;2.35;;;;;;;;;;5067420;28;20012;-60
2023/09/22 10:55:21;;;;;;;4.85;2.40;;;;;;;;;;5072885;28;20465;-61
2023/09/22 10:57:46;;;;;;;5.15;2.22;;;;;;;;;;5072082;28;20024;-63
2023/09/22 11:00:13;;;;;;;6.40;2.00;;;;;;;;;;5073192;28;20028;-61
2023/09/22 11:02:38;;;;;;;4.63;2.08;;;;;;;;;;5072738;28;20145;-61
2023/09/22 11:05:05;;;;;;;4.32;2.03;;;;;;;;;;5072351;28;20111;-59
2023/09/22 11:07:34;;;;;;;4.68;2.00;;;;;;;;;;5072476;28;20442;-61
2023/09/22 11:10:00;;;;;;;4.45;1.80;;;;;;;;;;5072956;28;20488;-60
2023/09/22 11:12:27;;;;;;;4.60;1.90;;;;;;;;;;5072729;28;20377;-61
2023/09/22 11:14:53;;;;;;;5.15;2.00;;;;;;;;;;5072881;28;20075;-58
2023/09/22 11:17:18;;;;;;;3.53;1.75;;;;;;;;;;5072999;28;20537;-60
2023/09/22 11:19:50;;;;;;;4.07;1.90;;;;;;;;;;5073033;28;20017;-61
2023/09/22 11:22:16;;;;;;;5.00;1.92;;;;;;;;;;5071365;28;20027;-62
2023/09/22 11:24:41;;;;;;;5.72;2.00;;;;;;;;;;5052949;28;20021;-63
2023/09/22 11:27:06;;;;;;;4.20;2.15;;;;;;;;;;5072666;28;20436;-61
2023/09/22 11:29:33;;;;;;;3.70;1.80;;;;;;;;;;5072878;28;20025;-61
2023/09/22 11:31:58;;;;;;;3.70;1.90;;;;;;;;;;5072364;28;20469;-60
2023/09/22 11:34:24;;;;;;;3.38;1.90;;;;;;;;;;5072642;28;20061;-61
2023/09/22 11:36:53;;;;;;;4.57;2.30;;;;;;;;;;5071973;28;20020;-62
2023/09/22 11:39:29;;;;;;;5.15;2.10;;;;;;;;;;5055635;28;20105;-62
2023/09/22 11:41:55;;;;;;;4.90;2.03;;;;;;;;;;5072222;28;20025;-62
2023/09/22 11:44:20;;;;;;;6.30;2.10;;;;;;;;;;5072796;28;20028;-60
2023/09/22 11:46:46;;;;;;;5.53;1.85;;;;;;;;;;5070669;28;20469;-63
2023/09/22 11:49:12;;;;;;;4.65;1.90;;;;;;;;;;5072292;28;20036;-62
2023/09/22 11:51:38;;;;;;;5.15;2.05;;;;;;;;;;5072208;28;20027;-62
2023/09/22 11:54:03;;;;;;;4.68;2.10;;;;;;;;;;5072071;28;20024;-63
2023/09/22 11:56:28;;;;;;;3.10;1.65;;;;;;;;;;5072359;28;20441;-62
2023/09/22 11:59:03;;;;;;;5.95;1.73;;;;;;;;;;5071538;28;20028;-62
2023/09/22 12:01:28;;;;;;;3.80;1.70;;;;;;;;;;5071677;28;20469;-61
2023/09/22 12:03:54;;;;;;;5.63;1.88;;;;;;;;;;5074229;28;20067;-61
2023/09/22 12:06:19;;;;;;;4.85;1.70;;;;;;;;;;5074854;28;20094;-61
2023/09/22 12:08:44;;;;;;;4.03;1.60;;;;;;;;;;5075967;28;20028;-63
2023/09/22 12:11:10;;;;;;;4.05;1.60;;;;;;;;;;5075781;28;20020;-63
2023/09/22 12:13:35;;;;;;;4.20;1.50;;;;;;;;;;5076050;28;20040;-62
2023/09/22 12:16:00;;;;;;;3.28;1.52;;;;;;;;;;5075795;28;20029;-62
2023/09/22 12:18:25;;;;;;;3.97;1.77;;;;;;;;;;5075516;28;20036;-62
2023/09/22 12:20:51;;;;;;;3.75;1.60;;;;;;;;;;5055890;28;20380;-60
2023/09/22 12:23:16;;;;;;;3.25;1.80;;;;;;;;;;5066516;28;20396;-62
2023/09/22 12:25:41;;;;;;;3.78;1.67;;;;;;;;;;5075292;28;20044;-61
2023/09/22 12:28:07;;;;;;;3.25;1.48;;;;;;;;;;5075035;28;20025;-62
2023/09/22 12:30:32;;;;;;;6.03;1.80;;;;;;;;;;5074112;28;20017;-65
2023/09/22 12:32:57;;;;;;;3.33;1.60;;;;;;;;;;5076384;28;20048;-63
2023/09/22 12:35:23;;;;;;;3.78;1.70;;;;;;;;;;5075418;28;20423;-61
2023/09/22 12:37:51;;;;;;;5.28;1.77;;;;;;;;;;5078884;28;20387;-64
2023/09/22 12:40:17;;;;;;;4.30;1.50;;;;;;;;;;5087869;28;20031;-64
2023/09/22 12:42:42;;;;;;;3.50;1.60;;;;;;;;;;5093039;28;20464;-64
2023/09/22 12:45:08;;;;;;;4.18;1.60;;;;;;;;;;5086987;28;20035;-62
2023/09/22 12:47:33;;;;;;;4.10;1.60;;;;;;;;;;5077776;28;20111;-63
2023/09/22 12:50:04;;;;;;;2.90;1.50;;;;;;;;;;5074291;28;20100;-62
2023/09/22 12:52:30;;;;;;;3.42;1.58;;;;;;;;;;5077475;28;20016;-63
2023/09/22 12:54:56;;;;;;;4.35;1.50;;;;;;;;;;5081744;28;20024;-63
2023/09/22 12:57:21;;;;;;;5.68;1.70;;;;;;;;;;5075287;28;20433;-63
2023/09/22 12:59:47;;;;;;;5.20;1.70;;;;;;;;;;5074753;28;20388;-64
2023/09/22 13:02:12;;;;;;;3.63;1.55;;;;;;;;;;5079727;28;20097;-63
2023/09/22 13:04:38;;;;;;;6.00;1.58;;;;;;;;;;5079952;28;20055;-68
2023/09/22 13:07:04;;;;;;;3.47;1.35;;;;;;;;;;5093160;28;20075;-68
2023/09/22 13:09:29;;;;;;;3.42;1.30;;;;;;;;;;5079193;28;20025;-67
2023/09/22 13:11:54;;;;;;;5.10;1.40;;;;;;;;;;5074318;28;20043;-67
2023/09/22 13:14:20;;;;;;;3.72;1.27;;;;;;;;;;5077603;28;20138;-68
2023/09/22 13:16:45;;;;;;;2.35;1.00;;;;;;;;;;5077998;28;20016;-68
2023/09/22 13:19:10;;;;;;;3.67;1.20;;;;;;;;;;5078162;28;20028;-68
2023/09/22 13:21:36;;;;;;;3.80;1.30;;;;;;;;;;5074538;28;20017;-68
2023/09/22 13:24:01;;;;;;;4.22;1.25;;;;;;;;;;5078086;28;20671;-68
2023/09/22 13:26:26;;;;;;;4.63;1.27;;;;;;;;;;5074250;28;20108;-65
2023/09/22 13:28:55;;;;;;;4.50;1.40;;;;;;;;;;5077602;28;20119;-67
2023/09/22 13:31:20;;;;;;;3.72;1.33;;;;;;;;;;5073823;28;20025;-68
2023/09/22 13:33:45;;;;;;;3.40;1.40;;;;;;;;;;5073764;28;20028;-66
2023/09/22 13:36:17;;;;;;;5.43;1.40;;;;;;;;;;5075455;28;20150;-67
2023/09/22 13:38:42;;;;;;;3.38;1.30;;;;;;;;;;5075560;28;20407;-67
2023/09/22 13:41:11;;;;;;;2.67;1.10;;;;;;;;;;5073129;28;20032;-68
2023/09/22 13:43:36;;;;;;;2.45;1.10;;;;;;;;;;5074284;28;20040;-68
2023/09/22 13:46:08;;;;;;;3.42;1.17;;;;;;;;;;5073815;28;20523;-67
2023/09/22 13:48:34;;;;;;;4.53;1.67;;;;;;;;;;5076720;28;20018;-68
2023/09/22 13:50:59;;;;;;;4.30;1.25;;;;;;;;;;5074039;28;20027;-67
2023/09/22 13:53:24;;;;;;;2.47;1.27;;;;;;;;;;5075710;28;20479;-68
2023/09/22 13:55:49;;;;;;;3.83;1.10;;;;;;;;;;5072886;28;20024;-67
2023/09/22 13:58:15;;;;;;;3.30;1.08;;;;;;;;;;5073233;28;20103;-68
2023/09/22 14:00:40;;;;;;;2.70;1.10;;;;;;;;;;5072598;28;20032;-68
2023/09/22 14:03:06;;;;;;;3.08;1.08;;;;;;;;;;5073421;28;20044;-67
2023/09/22 14:05:34;;;;;;;3.85;1.23;;;;;;;;;;5073387;28;20388;-67
2023/09/22 14:08:00;;;;;;;4.18;1.17;;;;;;;;;;5080763;28;20038;-67
2023/09/22 14:10:25;;;;;;;3.28;1.30;;;;;;;;;;5078862;28;20033;-67
2023/09/22 14:12:51;;;;;;;5.47;1.25;;;;;;;;;;5077595;28;20476;-67
2023/09/22 14:15:19;;;;;;;3.50;1.60;;;;;;;;;;5073860;28;20384;-64
2023/09/22 14:17:45;;;;;;;3.50;1.20;;;;;;;;;;5070054;28;20383;-63
2023/09/22 14:20:11;;;;;;;4.53;1.20;;;;;;;;;;5074158;28;20064;-64
2023/09/22 14:22:36;;;;;;;2.88;1.30;;;;;;;;;;5078569;28;20103;-61
2023/09/22 14:25:03;;;;;;;4.57;1.30;;;;;;;;;;5080640;28;20020;-61
2023/09/22 14:27:28;;;;;;;3.78;1.25;;;;;;;;;;5076675;28;20040;-60
2023/09/22 14:29:53;;;;;;;3.78;1.10;;;;;;;;;;5084599;28;20530;-63